Time;durP1;ratioP1;P1;durP2;ratioP2;P2;SDS_P1;SDS_P2;PMS_P1;PMS_P2;Temp;Humidity;BMP_temperature;BMP_pressure;BME280_temperature;BME280_humidity;BME280_pressure;Samples;Min_cycle;Max_cycle;Signal;HPM_P1;HPM_P2
2024/01/20 00:01:23;;;;;;;13.73;2.67;;;27.20;94.70;;;;;;4942656;29;20031;-70
2024/01/20 00:03:50;;;;;;;10.15;2.08;;;27.40;94.90;;;;;;4935534;28;20470;-71
2024/01/20 00:06:18;;;;;;;11.35;2.22;;;28.60;93.30;;;;;;4936299;29;20019;-71
2024/01/20 00:08:46;;;;;;;9.23;2.70;;;29.00;92.50;;;;;;4934852;29;20118;-70
2024/01/20 00:11:13;;;;;;;13.27;2.65;;;29.30;92.30;;;;;;4944187;29;20512;-71
2024/01/20 00:13:41;;;;;;;7.95;2.40;;;29.10;91.10;;;;;;4943336;29;20035;-70
2024/01/20 00:16:08;;;;;;;9.30;1.90;;;28.40;91.80;;;;;;4938330;29;20055;-72
2024/01/20 00:18:36;;;;;;;13.23;3.10;;;28.10;92.20;;;;;;4938423;29;20461;-71
2024/01/20 00:21:03;;;;;;;13.68;3.10;;;27.80;92.70;;;;;;4943132;28;20115;-71
2024/01/20 00:23:30;;;;;;;13.07;2.92;;;27.70;93.00;;;;;;4944020;28;20488;-70
2024/01/20 00:25:58;;;;;;;19.70;4.35;;;27.40;93.20;;;;;;4940954;28;20432;-70
2024/01/20 00:28:25;;;;;;;10.80;2.85;;;27.20;93.20;;;;;;4936223;28;20059;-71
2024/01/20 00:30:52;;;;;;;13.60;2.50;;;26.90;93.40;;;;;;4939252;29;20039;-72
2024/01/20 00:33:20;;;;;;;13.13;2.88;;;26.60;93.80;;;;;;4937621;29;20058;-71
2024/01/20 00:35:48;;;;;;;10.75;2.42;;;26.60;94.30;;;;;;4935211;29;20028;-72
2024/01/20 00:38:15;;;;;;;16.80;2.88;;;26.80;93.70;;;;;;4937627;29;20028;-72
2024/01/20 00:40:42;;;;;;;16.38;3.08;;;27.10;94.00;;;;;;4934754;28;20027;-71
2024/01/20 00:43:10;;;;;;;12.93;2.47;;;27.50;92.80;;;;;;4937028;29;20288;-71
2024/01/20 00:45:37;;;;;;;9.20;2.30;;;28.20;92.40;;;;;;4935325;29;20486;-70
2024/01/20 00:48:05;;;;;;;12.02;2.33;;;29.00;92.10;;;;;;4934483;29;20047;-70
2024/01/20 00:50:32;;;;;;;7.75;2.08;;;29.60;90.40;;;;;;4939115;28;20035;-70
2024/01/20 00:52:59;;;;;;;12.38;2.70;;;29.40;90.30;;;;;;4945995;28;20106;-70
2024/01/20 00:55:27;;;;;;;8.45;2.38;;;29.20;90.40;;;;;;4941310;29;20122;-72
2024/01/20 00:57:54;;;;;;;11.95;3.05;;;28.80;91.30;;;;;;4941228;29;20028;-71
2024/01/20 01:00:22;;;;;;;13.13;2.83;;;28.60;91.10;;;;;;4933828;28;20500;-70
2024/01/20 01:02:49;;;;;;;15.93;3.35;;;28.70;91.20;;;;;;4937591;29;20023;-71
2024/01/20 01:05:16;;;;;;;12.75;2.65;;;29.10;91.20;;;;;;4956170;28;20032;-70
2024/01/20 01:07:44;;;;;;;13.90;3.08;;;28.90;90.70;;;;;;4941242;28;20027;-70
2024/01/20 01:10:11;;;;;;;19.33;3.40;;;28.90;91.10;;;;;;4947216;29;20027;-71
2024/01/20 01:12:38;;;;;;;14.70;2.92;;;29.00;91.20;;;;;;4936793;29;20483;-71
2024/01/20 01:15:06;;;;;;;16.50;2.47;;;28.70;91.30;;;;;;4933246;29;20031;-71
2024/01/20 01:17:33;;;;;;;15.43;2.10;;;29.00;90.90;;;;;;4940271;29;20030;-70
2024/01/20 01:20:01;;;;;;;8.73;2.10;;;29.00;91.00;;;;;;4950392;28;20144;-71
2024/01/20 01:22:28;;;;;;;12.32;2.40;;;28.90;91.10;;;;;;4937732;28;22776;-70
2024/01/20 01:24:56;;;;;;;12.93;2.28;;;28.60;91.00;;;;;;4948285;28;20035;-70
2024/01/20 01:27:23;;;;;;;15.23;2.83;;;28.60;91.40;;;;;;4936669;28;20031;-71
2024/01/20 01:29:50;;;;;;;16.38;4.03;;;28.60;91.70;;;;;;4935890;28;20110;-70
2024/01/20 01:32:18;;;;;;;13.55;3.00;;;28.90;91.40;;;;;;4941566;28;20605;-71
2024/01/20 01:34:46;;;;;;;20.30;3.97;;;29.30;91.10;;;;;;4942110;28;20035;-71
2024/01/20 01:37:13;;;;;;;15.93;2.95;;;29.30;90.10;;;;;;4945155;28;20405;-71
2024/01/20 01:39:42;;;;;;;15.93;2.83;;;28.80;90.80;;;;;;4942232;28;20060;-71
2024/01/20 01:42:10;;;;;;;11.60;2.60;;;28.70;91.10;;;;;;4942033;28;20466;-71
2024/01/20 01:44:37;;;;;;;15.20;2.70;;;28.90;91.00;;;;;;4937211;28;20051;-72
2024/01/20 01:47:05;;;;;;;13.50;3.10;;;28.90;90.90;;;;;;4954443;28;20027;-70
2024/01/20 01:49:33;;;;;;;16.55;2.50;;;29.20;91.10;;;;;;4942963;28;20110;-70
2024/01/20 01:52:00;;;;;;;13.23;2.60;;;29.40;90.70;;;;;;4933230;28;20050;-70
2024/01/20 01:54:28;;;;;;;17.42;3.60;;;29.30;89.40;;;;;;4936533;28;20354;-70
2024/01/20 01:56:59;;;;;;;9.77;3.13;;;29.20;90.30;;;;;;4943218;28;20028;-71
2024/01/20 01:59:29;;;;;;;9.13;2.78;;;29.60;89.60;;;;;;4942156;28;20024;-70
2024/01/20 02:01:56;;;;;;;18.63;2.47;;;29.50;90.00;;;;;;4938511;28;20418;-70
2024/01/20 02:04:24;;;;;;;12.25;2.85;;;29.30;90.00;;;;;;4950540;28;20122;-70
2024/01/20 02:06:52;;;;;;;11.85;3.13;;;29.10;90.30;;;;;;4945148;28;20034;-72
2024/01/20 02:09:20;;;;;;;12.23;3.38;;;29.40;90.50;;;;;;4947672;28;20031;-71
2024/01/20 02:11:49;;;;;;;10.10;2.40;;;29.80;89.70;;;;;;4943323;28;20326;-71
2024/01/20 02:14:16;;;;;;;7.53;1.73;;;29.90;89.30;;;;;;4939666;28;20031;-71
2024/01/20 02:16:43;;;;;;;15.57;2.88;;;29.50;90.00;;;;;;4940019;28;20031;-71
2024/01/20 02:19:11;;;;;;;13.85;2.67;;;29.10;90.60;;;;;;4941772;28;20028;-71
2024/01/20 02:21:39;;;;;;;9.90;2.30;;;28.60;90.90;;;;;;4938613;28;20038;-70
2024/01/20 02:24:10;;;;;;;11.68;2.95;;;28.40;91.50;;;;;;4943398;28;20035;-70
2024/01/20 02:26:37;;;;;;;16.55;2.17;;;28.50;92.00;;;;;;4951301;28;20531;-71
2024/01/20 02:29:04;;;;;;;11.13;2.45;;;28.30;91.60;;;;;;4947177;28;20034;-69
2024/01/20 02:31:31;;;;;;;12.52;2.08;;;28.40;92.00;;;;;;4946313;28;20477;-71
2024/01/20 02:34:00;;;;;;;10.27;2.55;;;28.50;91.90;;;;;;4951522;28;20400;-71
2024/01/20 02:36:27;;;;;;;18.45;2.80;;;28.50;92.20;;;;;;4936811;28;20031;-71
2024/01/20 02:38:54;;;;;;;16.35;2.70;;;28.30;91.90;;;;;;4947122;28;20028;-71
2024/01/20 02:41:22;;;;;;;15.73;2.42;;;28.10;92.10;;;;;;4946597;28;20036;-72
2024/01/20 02:43:49;;;;;;;12.60;2.85;;;28.30;92.20;;;;;;4948521;28;20027;-69
2024/01/20 02:46:16;;;;;;;15.40;2.75;;;28.60;92.20;;;;;;4941658;28;20355;-70
2024/01/20 02:48:47;;;;;;;13.95;3.20;;;28.90;91.40;;;;;;4953319;28;20028;-71
2024/01/20 02:51:15;;;;;;;15.80;2.92;;;29.10;91.60;;;;;;4941184;28;20496;-71
2024/01/20 02:53:42;;;;;;;10.50;2.42;;;29.60;91.00;;;;;;4958638;28;20055;-71
2024/01/20 02:56:13;;;;;;;15.73;2.35;;;29.50;90.50;;;;;;4939698;28;20428;-72
2024/01/20 02:58:40;;;;;;;13.23;1.92;;;29.10;91.00;;;;;;4937205;28;20118;-71
2024/01/20 03:01:08;;;;;;;13.65;2.35;;;28.70;91.30;;;;;;4942774;28;20153;-71
2024/01/20 03:03:35;;;;;;;14.85;2.65;;;28.70;91.90;;;;;;4936619;28;20027;-73
2024/01/20 03:06:03;;;;;;;11.93;2.25;;;29.00;91.70;;;;;;4943282;28;20054;-72
2024/01/20 03:08:30;;;;;;;20.40;3.20;;;28.80;91.60;;;;;;4949519;28;20038;-71
2024/01/20 03:10:57;;;;;;;11.30;2.17;;;28.90;91.90;;;;;;4948096;28;20031;-71
2024/01/20 03:13:25;;;;;;;11.98;2.42;;;28.80;91.70;;;;;;4948722;28;20481;-71
2024/01/20 03:15:52;;;;;;;17.58;2.40;;;28.80;92.20;;;;;;4941760;28;20028;-71
2024/01/20 03:18:19;;;;;;;15.30;3.00;;;28.70;92.10;;;;;;4934737;28;20457;-71
2024/01/20 03:20:46;;;;;;;14.02;1.90;;;29.20;91.90;;;;;;4935566;28;20058;-71
2024/01/20 03:23:14;;;;;;;14.48;2.10;;;29.70;90.40;;;;;;4940613;28;20105;-72
2024/01/20 03:25:41;;;;;;;7.32;2.05;;;30.10;90.90;;;;;;4937881;28;20043;-72
2024/01/20 03:28:08;;;;;;;17.13;2.97;;;30.60;90.40;;;;;;4942228;29;20032;-72
2024/01/20 03:30:36;;;;;;;15.20;2.15;;;30.00;89.90;;;;;;4935740;28;20043;-71
2024/01/20 03:33:03;;;;;;;10.93;2.08;;;29.90;90.60;;;;;;4937051;28;20020;-72
2024/01/20 03:35:31;;;;;;;10.05;2.28;;;30.20;90.60;;;;;;4937165;28;20066;-67
2024/01/20 03:37:58;;;;;;;15.93;2.30;;;30.50;90.00;;;;;;4959418;28;20035;-67
2024/01/20 03:40:25;;;;;;;16.10;2.72;;;30.00;90.30;;;;;;4940580;28;20626;-67
2024/01/20 03:42:53;;;;;;;15.40;2.55;;;29.80;90.50;;;;;;4939880;28;20034;-67
2024/01/20 03:45:20;;;;;;;11.82;2.13;;;29.40;91.10;;;;;;4943559;28;20098;-67
2024/01/20 03:47:47;;;;;;;11.77;2.58;;;29.20;91.60;;;;;;4934910;28;20047;-67
2024/01/20 03:50:15;;;;;;;11.40;1.92;;;29.20;91.30;;;;;;4950093;28;20031;-68
2024/01/20 03:52:43;;;;;;;14.15;2.22;;;28.80;92.10;;;;;;4937674;28;20055;-67
2024/01/20 03:55:10;;;;;;;13.88;2.13;;;28.80;92.10;;;;;;4941128;28;20063;-69
2024/01/20 03:57:38;;;;;;;10.45;1.83;;;28.90;92.10;;;;;;4937901;28;20039;-69
2024/01/20 04:00:06;;;;;;;17.20;3.05;;;29.30;91.90;;;;;;4943614;28;20039;-68
2024/01/20 04:02:33;;;;;;;12.38;2.45;;;29.40;91.50;;;;;;4941883;28;20118;-68
2024/01/20 04:05:01;;;;;;;10.18;2.00;;;29.20;91.80;;;;;;4950293;28;20043;-67
2024/01/20 04:07:28;;;;;;;11.60;2.60;;;29.20;92.00;;;;;;4965410;28;20393;-67
2024/01/20 04:09:55;;;;;;;13.73;2.35;;;29.60;91.60;;;;;;4940783;28;20039;-67
2024/01/20 04:12:24;;;;;;;10.57;2.17;;;29.40;91.40;;;;;;4942977;28;20086;-68
2024/01/20 04:14:51;;;;;;;12.38;2.50;;;29.30;92.20;;;;;;4943460;28;20039;-68
2024/01/20 04:17:18;;;;;;;12.13;2.67;;;29.60;91.70;;;;;;4932356;28;20118;-68
2024/01/20 04:19:46;;;;;;;11.13;2.05;;;29.80;91.20;;;;;;4938727;29;20111;-68
2024/01/20 04:22:13;;;;;;;11.35;2.85;;;29.90;91.20;;;;;;4933935;29;20067;-67
2024/01/20 04:24:40;;;;;;;11.65;2.85;;;29.60;91.20;;;;;;4934907;28;20126;-68
2024/01/20 04:27:08;;;;;;;13.10;2.67;;;29.60;91.50;;;;;;4949954;28;20031;-69
2024/01/20 04:29:35;;;;;;;13.60;2.53;;;30.00;91.30;;;;;;4940412;28;20030;-68
2024/01/20 04:32:02;;;;;;;7.20;2.08;;;30.70;90.50;;;;;;4943267;28;20460;-67
2024/01/20 04:34:30;;;;;;;10.23;2.72;;;30.60;90.20;;;;;;4933791;28;20028;-67
2024/01/20 04:36:57;;;;;;;12.27;2.50;;;30.10;90.80;;;;;;4942715;28;20042;-69
2024/01/20 04:39:25;;;;;;;15.55;3.38;;;30.00;91.00;;;;;;4945733;28;20027;-68
2024/01/20 04:41:52;;;;;;;15.70;2.65;;;29.90;91.00;;;;;;4936867;29;20023;-68
2024/01/20 04:44:19;;;;;;;15.38;2.67;;;29.70;91.50;;;;;;4940558;28;20035;-69
2024/01/20 04:46:47;;;;;;;15.13;2.92;;;29.50;91.50;;;;;;4941156;28;20034;-68
2024/01/20 04:49:14;;;;;;;11.85;2.80;;;29.30;91.50;;;;;;4939500;28;20358;-68
2024/01/20 04:51:41;;;;;;;12.13;2.78;;;29.00;92.30;;;;;;4937707;28;20034;-68
2024/01/20 04:54:09;;;;;;;15.38;2.58;;;29.00;92.40;;;;;;4939078;28;20054;-67
2024/01/20 04:56:36;;;;;;;11.75;4.00;;;28.30;93.10;;;;;;4939487;28;20040;-67
2024/01/20 04:59:03;;;;;;;12.30;2.97;;;28.40;93.50;;;;;;4954722;28;20036;-67
2024/01/20 05:01:31;;;;;;;12.75;3.05;;;28.70;92.80;;;;;;4940178;28;20540;-68
2024/01/20 05:03:58;;;;;;;13.10;3.45;;;29.20;92.70;;;;;;4935280;28;20032;-68
2024/01/20 05:06:25;;;;;;;13.07;3.28;;;29.70;92.00;;;;;;4935505;28;20441;-67
2024/01/20 05:08:53;;;;;;;9.43;3.13;;;29.60;91.90;;;;;;4942931;28;20051;-67
2024/01/20 05:11:20;;;;;;;11.13;3.20;;;29.30;92.00;;;;;;4937720;28;20405;-67
2024/01/20 05:13:47;;;;;;;11.35;3.22;;;29.30;92.10;;;;;;4935998;28;20035;-67
2024/01/20 05:16:15;;;;;;;12.05;3.53;;;29.60;91.70;;;;;;4941946;28;20118;-67
2024/01/20 05:18:43;;;;;;;10.77;3.33;;;29.70;91.90;;;;;;4940364;28;20102;-67
2024/01/20 05:21:14;;;;;;;17.70;4.07;;;29.40;91.90;;;;;;4932781;28;20447;-68
2024/01/20 05:23:41;;;;;;;10.07;2.97;;;29.30;92.40;;;;;;4944580;28;20094;-67
2024/01/20 05:26:09;;;;;;;16.58;3.60;;;29.50;92.10;;;;;;4938638;28;20032;-68
2024/01/20 05:28:36;;;;;;;11.65;3.40;;;29.60;91.50;;;;;;4936256;28;20042;-67
2024/01/20 05:31:03;;;;;;;20.27;4.65;;;29.60;91.90;;;;;;4955102;28;20157;-67
2024/01/20 05:33:31;;;;;;;18.40;3.17;;;29.70;91.70;;;;;;4939344;28;20023;-67
2024/01/20 05:35:58;;;;;;;12.85;2.90;;;29.50;92.00;;;;;;4942779;28;20473;-69
2024/01/20 05:38:25;;;;;;;14.52;3.00;;;29.30;92.20;;;;;;4938568;28;20032;-68
2024/01/20 05:40:53;;;;;;;11.75;3.25;;;29.10;92.60;;;;;;4939474;28;20028;-67
2024/01/20 05:43:20;;;;;;;13.27;2.95;;;29.30;92.40;;;;;;4939417;28;20046;-67
2024/01/20 05:45:48;;;;;;;11.68;2.65;;;29.30;92.30;;;;;;4944553;29;20051;-67
2024/01/20 05:48:15;;;;;;;10.90;2.80;;;29.20;92.50;;;;;;4948139;28;20035;-67
2024/01/20 05:50:42;;;;;;;9.80;3.00;;;29.10;92.80;;;;;;4938937;28;20050;-68
2024/01/20 05:53:10;;;;;;;11.60;3.22;;;29.20;92.50;;;;;;4947830;28;20039;-68
2024/01/20 05:55:37;;;;;;;14.75;2.53;;;29.50;92.30;;;;;;4939797;28;20027;-67
2024/01/20 05:58:04;;;;;;;11.38;2.67;;;29.50;92.10;;;;;;4936642;28;20450;-67
2024/01/20 06:00:32;;;;;;;16.45;2.70;;;29.30;92.30;;;;;;4942241;28;20920;-67
2024/01/20 06:02:59;;;;;;;16.05;3.33;;;28.80;92.50;;;;;;4942728;28;20031;-67
2024/01/20 06:05:27;;;;;;;13.45;3.38;;;28.60;93.20;;;;;;4944139;28;20389;-66
2024/01/20 06:07:54;;;;;;;21.20;3.92;;;28.70;93.00;;;;;;4948387;28;20042;-67
2024/01/20 06:10:21;;;;;;;9.20;2.67;;;28.90;93.00;;;;;;4935816;28;20042;-67
2024/01/20 06:12:49;;;;;;;10.38;2.40;;;28.90;92.90;;;;;;4938403;28;20036;-67
2024/01/20 06:15:16;;;;;;;13.70;3.78;;;28.60;93.00;;;;;;4939165;28;20458;-66
2024/01/20 06:17:44;;;;;;;12.45;2.95;;;28.30;93.40;;;;;;4940705;28;20066;-67
2024/01/20 06:20:11;;;;;;;13.95;3.00;;;28.20;94.00;;;;;;4943463;28;20055;-68
2024/01/20 06:22:39;;;;;;;10.73;2.60;;;28.30;93.70;;;;;;4942073;28;20555;-68
2024/01/20 06:25:06;;;;;;;14.63;2.47;;;28.30;93.80;;;;;;4938443;28;20046;-67
2024/01/20 06:27:34;;;;;;;14.05;2.53;;;28.50;93.50;;;;;;4941645;28;20028;-67
2024/01/20 06:30:01;;;;;;;9.82;2.10;;;28.60;93.50;;;;;;4947780;28;20027;-68
2024/01/20 06:32:28;;;;;;;10.40;2.75;;;28.70;93.50;;;;;;4946636;28;20381;-68
2024/01/20 06:34:56;;;;;;;12.18;2.22;;;28.90;93.40;;;;;;4936203;28;20031;-68
2024/01/20 06:37:23;;;;;;;6.28;1.83;;;29.00;92.90;;;;;;4948640;28;20412;-67
2024/01/20 06:39:50;;;;;;;8.88;1.80;;;28.90;93.10;;;;;;4943516;28;20528;-68
2024/01/20 06:42:18;;;;;;;11.93;2.42;;;28.90;92.80;;;;;;4939138;28;20086;-68
2024/01/20 06:44:45;;;;;;;10.60;1.95;;;28.80;93.00;;;;;;4943081;28;20147;-68
2024/01/20 06:47:12;;;;;;;12.35;2.15;;;28.20;93.20;;;;;;4938170;28;20071;-69
2024/01/20 06:49:41;;;;;;;12.40;2.45;;;27.80;93.90;;;;;;4945683;28;20027;-67
2024/01/20 06:52:08;;;;;;;10.88;2.42;;;27.60;94.30;;;;;;4940191;28;20059;-68
2024/01/20 06:54:35;;;;;;;12.00;1.92;;;27.50;94.70;;;;;;4942439;28;20836;-66
2024/01/20 06:57:03;;;;;;;12.38;1.85;;;27.60;95.00;;;;;;4938814;28;20031;-68
2024/01/20 06:59:30;;;;;;;13.60;2.60;;;27.90;94.60;;;;;;4943086;28;20427;-69
2024/01/20 07:01:58;;;;;;;10.40;2.15;;;28.00;94.40;;;;;;4939239;28;20418;-68
2024/01/20 07:04:25;;;;;;;9.63;1.75;;;27.90;94.30;;;;;;4942786;28;20046;-67
2024/01/20 07:06:52;;;;;;;13.07;2.05;;;27.70;94.80;;;;;;4941828;28;20461;-68
2024/01/20 07:09:20;;;;;;;15.13;2.47;;;27.90;94.80;;;;;;4941896;28;20415;-68
2024/01/20 07:11:47;;;;;;;9.35;1.65;;;28.10;94.20;;;;;;4943209;29;20035;-68
2024/01/20 07:14:14;;;;;;;12.20;2.38;;;28.10;94.40;;;;;;4939370;28;20071;-68
2024/01/20 07:16:42;;;;;;;8.82;1.60;;;28.10;94.60;;;;;;4939810;28;20401;-68
2024/01/20 07:19:09;;;;;;;12.75;1.90;;;27.90;94.70;;;;;;4942186;28;20027;-68
2024/01/20 07:21:36;;;;;;;10.60;2.03;;;27.60;95.10;;;;;;4940856;29;20027;-68
2024/01/20 07:24:04;;;;;;;8.82;1.83;;;27.50;95.30;;;;;;4942720;28;20030;-68
2024/01/20 07:26:32;;;;;;;14.27;1.80;;;27.40;95.50;;;;;;4940002;28;20028;-68
2024/01/20 07:28:59;;;;;;;11.80;1.90;;;27.70;95.20;;;;;;4945066;28;20038;-68
2024/01/20 07:31:26;;;;;;;9.77;1.83;;;27.80;95.00;;;;;;4941123;28;20036;-68
2024/01/20 07:33:54;;;;;;;7.95;1.65;;;28.00;94.90;;;;;;4941845;28;20032;-68
2024/01/20 07:36:21;;;;;;;10.55;2.90;;;28.10;94.60;;;;;;4940794;28;20027;-68
2024/01/20 07:38:48;;;;;;;8.38;1.63;;;28.10;94.60;;;;;;4940446;28;20027;-68
2024/01/20 07:41:16;;;;;;;9.15;1.60;;;27.90;94.90;;;;;;4934833;29;20433;-68
2024/01/20 07:43:43;;;;;;;12.80;2.15;;;27.50;95.20;;;;;;4942568;28;20381;-68
2024/01/20 07:46:12;;;;;;;12.43;2.00;;;27.40;95.50;;;;;;4941251;28;20043;-69
2024/01/20 07:48:39;;;;;;;10.25;1.88;;;27.40;95.90;;;;;;4937019;28;20129;-68
2024/01/20 07:51:06;;;;;;;12.27;1.70;;;27.30;96.00;;;;;;4943657;28;20077;-69
2024/01/20 07:53:34;;;;;;;13.57;1.95;;;27.40;95.80;;;;;;4939360;28;20481;-69
2024/01/20 07:56:01;;;;;;;14.55;2.67;;;27.20;96.30;;;;;;4939477;28;20072;-67
2024/01/20 07:58:28;;;;;;;13.38;2.20;;;26.90;96.40;;;;;;4936757;28;20436;-67
2024/01/20 08:00:56;;;;;;;11.95;2.63;;;26.80;96.70;;;;;;4941723;28;20032;-68
2024/01/20 08:03:23;;;;;;;12.63;1.83;;;27.00;96.50;;;;;;4938258;28;20028;-67
2024/01/20 08:05:50;;;;;;;17.13;1.92;;;27.10;96.20;;;;;;4944502;28;20098;-68
2024/01/20 08:08:18;;;;;;;9.00;1.73;;;27.00;96.20;;;;;;4939653;28;20031;-68
2024/01/20 08:10:45;;;;;;;10.93;2.42;;;27.00;96.30;;;;;;4940529;28;20027;-69
2024/01/20 08:13:12;;;;;;;10.48;2.30;;;27.00;96.30;;;;;;4950561;28;20361;-67
2024/01/20 08:15:40;;;;;;;10.88;1.83;;;26.90;96.40;;;;;;4937293;28;20037;-68
2024/01/20 08:18:07;;;;;;;12.07;2.25;;;26.50;97.00;;;;;;4946773;28;20377;-68
2024/01/20 08:20:34;;;;;;;13.23;2.80;;;26.60;97.20;;;;;;4948709;28;20055;-66
2024/01/20 08:23:02;;;;;;;10.80;1.50;;;26.60;97.20;;;;;;4939146;28;20470;-67
2024/01/20 08:25:29;;;;;;;12.13;2.08;;;26.60;97.30;;;;;;4945101;28;20035;-68
2024/01/20 08:27:56;;;;;;;10.68;2.08;;;26.60;97.30;;;;;;4939361;28;20397;-67
2024/01/20 08:30:24;;;;;;;18.90;2.42;;;26.60;97.40;;;;;;4940234;28;20034;-67
2024/01/20 08:32:51;;;;;;;11.73;1.95;;;26.50;97.60;;;;;;4936918;28;20504;-68
2024/01/20 08:35:18;;;;;;;12.95;2.38;;;26.60;97.50;;;;;;4934641;28;20019;-67
2024/01/20 08:37:45;;;;;;;9.43;2.63;;;26.50;97.70;;;;;;4943171;28;20258;-67
2024/01/20 08:40:13;;;;;;;14.38;2.60;;;26.50;97.50;;;;;;4943914;28;20027;-67
2024/01/20 08:42:40;;;;;;;11.55;2.50;;;26.30;98.00;;;;;;4938817;28;20035;-68
2024/01/20 08:45:08;;;;;;;11.10;2.30;;;26.30;98.00;;;;;;4936370;28;20039;-72
2024/01/20 08:47:35;;;;;;;9.48;1.85;;;26.20;98.00;;;;;;4938319;28;20031;-71
2024/01/20 08:50:03;;;;;;;20.13;2.20;;;26.20;98.00;;;;;;4936210;28;20035;-71
2024/01/20 08:52:31;;;;;;;9.43;2.30;;;26.00;98.00;;;;;;4938010;28;20048;-71
2024/01/20 08:54:59;;;;;;;13.23;2.33;;;26.00;98.50;;;;;;4939556;28;20184;-71
2024/01/20 08:57:29;;;;;;;17.13;1.92;;;25.90;98.40;;;;;;4944879;28;20051;-71
2024/01/20 08:59:57;;;;;;;9.57;1.92;;;26.00;98.40;;;;;;4934831;28;20589;-71
2024/01/20 09:02:24;;;;;;;11.30;2.15;;;26.00;98.40;;;;;;4953665;28;20408;-71
2024/01/20 09:04:51;;;;;;;9.65;2.00;;;26.00;98.70;;;;;;4939453;28;20469;-71
2024/01/20 09:07:20;;;;;;;11.25;1.92;;;26.00;98.60;;;;;;4971323;28;20129;-72
2024/01/20 09:09:48;;;;;;;8.65;1.80;;;26.00;98.70;;;;;;4934288;28;20035;-70
2024/01/20 09:12:15;;;;;;;8.05;1.80;;;26.00;98.70;;;;;;4943294;28;20035;-70
2024/01/20 09:14:42;;;;;;;10.75;2.25;;;26.00;98.70;;;;;;4938331;28;20039;-70
2024/01/20 09:17:10;;;;;;;12.90;2.90;;;25.90;99.00;;;;;;4934701;29;20477;-69
2024/01/20 09:19:37;;;;;;;11.95;2.28;;;25.80;99.00;;;;;;4935707;29;20143;-70
2024/01/20 09:22:04;;;;;;;11.23;2.58;;;25.80;98.90;;;;;;4937634;28;20028;-70
2024/01/20 09:24:31;;;;;;;14.13;2.13;;;25.70;99.00;;;;;;4943725;28;20118;-70
2024/01/20 09:26:59;;;;;;;11.38;2.13;;;25.70;99.20;;;;;;4938396;28;20469;-70
2024/01/20 09:29:27;;;;;;;7.85;1.60;;;25.80;99.00;;;;;;4941883;28;20031;-70
2024/01/20 09:31:54;;;;;;;8.63;1.40;;;25.70;99.10;;;;;;4942244;28;20362;-70
2024/01/20 09:34:21;;;;;;;12.98;2.13;;;25.60;99.10;;;;;;4939344;28;20126;-70
2024/01/20 09:36:50;;;;;;;11.52;2.20;;;25.60;99.10;;;;;;4937260;28;20106;-71
2024/01/20 09:39:17;;;;;;;9.68;1.92;;;25.50;99.30;;;;;;4933421;28;20043;-67
2024/01/20 09:41:46;;;;;;;15.90;2.22;;;25.30;99.30;;;;;;4937000;28;20031;-68
2024/01/20 09:44:15;;;;;;;9.85;1.35;;;25.40;99.50;;;;;;4939010;28;20051;-67
2024/01/20 09:46:43;;;;;;;12.15;1.67;;;25.20;99.50;;;;;;4943113;28;20035;-66
2024/01/20 09:49:10;;;;;;;8.75;1.63;;;25.20;99.90;;;;;;4941430;28;20039;-67
2024/01/20 09:51:51;;;;;;;13.35;1.90;;;25.20;99.90;;;;;;4937554;28;20027;-67
2024/01/20 09:54:21;;;;;;;13.98;2.17;;;25.30;99.60;;;;;;4938683;28;20348;-67
2024/01/20 09:56:49;;;;;;;12.80;2.10;;;25.50;99.50;;;;;;4933790;28;20031;-68
2024/01/20 09:59:19;;;;;;;13.40;3.40;;;25.50;99.50;;;;;;4939926;28;20047;-67
2024/01/20 10:01:47;;;;;;;16.05;3.38;;;25.40;99.50;;;;;;4944356;28;20032;-67
2024/01/20 10:04:18;;;;;;;15.80;3.58;;;25.60;99.50;;;;;;4936842;28;20039;-67
2024/01/20 10:06:45;;;;;;;17.30;4.20;;;25.60;99.40;;;;;;4951022;28;20035;-67
2024/01/20 10:09:12;;;;;;;12.63;3.28;;;25.50;99.60;;;;;;4943138;28;20023;-67
2024/01/20 10:11:39;;;;;;;14.05;2.88;;;25.40;99.60;;;;;;4940915;28;20039;-67
2024/01/20 10:14:07;;;;;;;11.77;2.80;;;25.40;99.60;;;;;;4937361;28;20031;-68
2024/01/20 10:16:40;;;;;;;14.00;2.30;;;25.40;99.80;;;;;;4938155;28;20381;-67
2024/01/20 10:19:08;;;;;;;17.08;2.83;;;25.50;99.60;;;;;;4946364;28;20094;-67
2024/01/20 10:21:42;;;;;;;10.45;2.08;;;25.40;99.90;;;;;;4945478;28;20054;-67
2024/01/20 10:24:09;;;;;;;12.82;2.03;;;25.50;99.70;;;;;;4936239;28;20490;-67
2024/01/20 10:26:43;;;;;;;9.23;2.15;;;25.40;99.60;;;;;;4939556;28;20040;-67
2024/01/20 10:29:11;;;;;;;13.75;1.85;;;25.40;99.60;;;;;;4940000;28;20054;-67
2024/01/20 10:31:38;;;;;;;11.18;1.70;;;25.30;99.50;;;;;;4937114;28;20028;-68
2024/01/20 10:34:06;;;;;;;11.73;1.88;;;25.20;99.70;;;;;;4940128;28;20892;-68
2024/01/20 10:36:33;;;;;;;7.38;1.50;;;25.10;99.90;;;;;;4938710;28;20520;-69
2024/01/20 10:39:04;;;;;;;10.02;1.55;;;25.20;99.90;;;;;;4944648;28;20078;-68
2024/01/20 10:41:33;;;;;;;11.30;2.10;;;25.10;99.70;;;;;;4942559;28;20082;-67
2024/01/20 10:44:03;;;;;;;10.27;1.55;;;25.10;99.90;;;;;;4958393;28;20041;-67
2024/01/20 10:46:36;;;;;;;13.70;2.55;;;24.90;99.90;;;;;;4939435;28;20051;-67
2024/01/20 10:49:08;;;;;;;11.43;3.03;;;25.00;99.90;;;;;;4935939;28;20114;-67
2024/01/20 10:51:36;;;;;;;13.25;2.65;;;25.20;99.70;;;;;;4937810;28;20054;-68
2024/01/20 10:54:06;;;;;;;11.20;2.50;;;25.10;99.90;;;;;;4952778;29;20126;-67
2024/01/20 10:56:35;;;;;;;11.35;2.05;;;25.10;99.90;;;;;;4937841;28;20412;-67
2024/01/20 10:59:10;;;;;;;10.82;2.35;;;25.00;99.90;;;;;;4945621;28;20027;-67
2024/01/20 11:01:39;;;;;;;11.73;1.80;;;25.10;99.90;;;;;;4946375;28;20035;-68
2024/01/20 11:04:07;;;;;;;13.43;3.05;;;25.10;99.90;;;;;;4946493;28;20118;-67
2024/01/20 11:06:36;;;;;;;22.15;3.00;;;25.20;99.90;;;;;;4936095;28;20343;-67
2024/01/20 11:09:04;;;;;;;14.20;2.42;;;25.10;99.90;;;;;;4942327;28;20035;-67
2024/01/20 11:11:35;;;;;;;16.65;2.13;;;25.00;99.90;;;;;;4940937;28;20027;-66
2024/01/20 11:14:02;;;;;;;10.55;1.52;;;24.90;99.90;;;;;;4941999;28;20098;-66
2024/01/20 11:16:33;;;;;;;14.30;2.15;;;24.70;99.90;;;;;;4942236;28;20475;-67
2024/01/20 11:19:11;;;;;;;12.02;1.85;;;24.60;99.90;;;;;;4935195;28;20433;-66
2024/01/20 11:21:39;;;;;;;10.20;2.25;;;24.50;99.90;;;;;;4942027;28;20029;-67
2024/01/20 11:24:07;;;;;;;11.52;1.67;;;24.60;99.90;;;;;;4944072;28;20035;-70
2024/01/20 11:26:38;;;;;;;10.52;1.70;;;24.50;99.90;;;;;;4948185;28;20119;-69
2024/01/20 11:29:08;;;;;;;14.85;2.45;;;24.40;99.90;;;;;;4954038;28;20035;-70
2024/01/20 11:31:35;;;;;;;13.70;2.30;;;24.40;99.90;;;;;;4946294;28;20028;-70
2024/01/20 11:34:05;;;;;;;11.77;2.83;;;24.50;99.90;;;;;;4937875;28;20015;-69
2024/01/20 11:36:34;;;;;;;16.40;2.55;;;24.50;99.90;;;;;;4941738;28;20461;-70
2024/01/20 11:39:04;;;;;;;12.60;2.65;;;24.40;99.90;;;;;;4943756;28;20400;-70
2024/01/20 11:41:31;;;;;;;12.35;2.40;;;24.30;99.90;;;;;;4937745;29;20028;-70
2024/01/20 11:43:59;;;;;;;10.40;2.00;;;24.30;99.90;;;;;;4942653;28;20027;-70
2024/01/20 11:46:26;;;;;;;11.02;2.00;;;24.10;99.90;;;;;;4939414;28;20047;-69
2024/01/20 11:48:54;;;;;;;13.88;2.53;;;24.00;99.90;;;;;;4936777;28;20024;-69
2024/01/20 11:51:21;;;;;;;10.75;1.83;;;24.10;99.90;;;;;;4943602;28;20488;-69
2024/01/20 11:53:49;;;;;;;12.93;2.17;;;24.00;99.90;;;;;;4944632;28;20086;-69
2024/01/20 11:56:17;;;;;;;11.20;1.92;;;23.90;99.90;;;;;;4941342;28;20030;-70
2024/01/20 11:58:45;;;;;;;16.83;2.60;;;23.90;99.90;;;;;;4939712;28;20106;-70
2024/01/20 12:01:13;;;;;;;18.55;2.22;;;23.80;99.90;;;;;;4943210;28;20031;-70
2024/01/20 12:03:41;;;;;;;15.82;2.45;;;23.80;99.90;;;;;;4937360;28;20544;-70
2024/01/20 12:06:09;;;;;;;12.88;2.40;;;23.80;99.90;;;;;;4939242;28;20111;-70
2024/01/20 12:08:40;;;;;;;13.90;2.60;;;23.80;99.90;;;;;;4939454;28;20035;-70
2024/01/20 12:11:08;;;;;;;12.32;2.47;;;23.70;99.90;;;;;;4938560;28;20078;-70
2024/01/20 12:13:38;;;;;;;17.15;3.58;;;23.70;99.90;;;;;;4938802;28;20032;-70
2024/01/20 12:16:06;;;;;;;10.45;2.08;;;23.70;99.90;;;;;;4940519;28;20043;-70
2024/01/20 12:18:34;;;;;;;13.45;2.75;;;23.60;99.90;;;;;;4938477;28;20019;-70
2024/01/20 12:21:01;;;;;;;10.32;2.83;;;23.60;99.90;;;;;;4940669;28;20031;-71
2024/01/20 12:23:28;;;;;;;10.73;2.38;;;23.60;99.90;;;;;;4946381;28;20074;-71
2024/01/20 12:25:56;;;;;;;16.52;2.70;;;23.60;99.90;;;;;;4941031;28;20489;-71
2024/01/20 12:28:25;;;;;;;16.42;2.90;;;23.60;99.90;;;;;;4943945;29;20066;-71
2024/01/20 12:30:52;;;;;;;17.88;2.75;;;23.60;99.90;;;;;;4939432;28;20035;-71
2024/01/20 12:33:20;;;;;;;12.52;3.03;;;23.70;99.90;;;;;;4939001;28;20420;-71
2024/01/20 12:35:47;;;;;;;13.45;2.53;;;23.60;99.90;;;;;;4947350;28;20028;-71
2024/01/20 12:38:14;;;;;;;14.15;2.63;;;23.60;99.90;;;;;;4934151;29;20026;-71
2024/01/20 12:40:42;;;;;;;12.88;2.85;;;23.60;99.90;;;;;;4935312;29;20368;-72